Latest Weather Observations for Roxby Downs

IDS60801

Issued at 10:51 am CDT Saturday 15 December 2018 (issued every 10 minutes, with the page automatically refreshed every 10 minutes)

About weather observations | Map of weather stations | Latest weather observations for SA | Other Formats
Station Details ID: 016096 Name: OLYMPIC DAM AERODROME Lat: -30.48 Lon: 136.88 Height: 98.5 m
Data from the previous 72 hours. | See also: Recent months at Roxby Downs
Date/Time
CDT
Temp
°C
App
Temp
°C
Dew
Point
°C
Rel
Hum
%
Delta-T
°C
Wind Press
QNH
hPa
Press
MSL
hPa
Rain since
9am
mm
Dir  Spd
km/h
Gust
km/h
Spd
kts
Gust
kts
15/10:30am 20.9 17.9 11.8 56 5.1 SSW 19 28 10 15 1008.3 1007.7 0.0
15/10:00am 20.0 16.8 12.0 60 4.5 SW 20 32 11 17 1008.3 1007.7 0.0
15/09:30am 19.4 16.2 11.9 62 4.2 SSW 20 30 11 16 1008.3 1007.7 0.0
15/09:00am 18.6 15.6 12.4 67 3.5 SSW 20 28 11 15 1008.0 1007.4 0.0
15/08:30am 17.8 14.4 12.5 71 3.0 SSW 22 32 12 17 1008.1 1007.5 0.0
15/08:00am 17.3 14.3 12.4 73 2.7 SSW 20 30 11 16 1008.1 1007.5 0.0
15/07:30am 16.7 13.7 12.5 76 2.3 SSW 20 32 11 17 1007.8 1007.2 0.0
15/07:00am 16.5 13.5 12.7 78 2.1 SSW 20 28 11 15 1007.3 1006.7 0.0
15/06:56am 16.5 13.5 12.7 78 2.1 SSW 20 28 11 15 1007.2 1006.6 0.0
15/06:30am 15.9 12.7 13.0 83 1.6 SSW 22 30 12 16 1007.1 1006.5 0.0
15/06:16am 15.9 12.2 12.8 82 1.7 SSW 24 33 13 18 1007.0 1006.4 0.0
15/06:00am 16.2 12.5 12.6 79 2.0 SSW 24 32 13 17 1006.8 1006.2 0.0
15/05:30am 16.6 13.2 12.6 77 2.2 SSW 22 32 12 17 1006.5 1005.9 0.0
15/05:00am 16.5 13.7 12.7 78 2.1 SW 19 26 10 14 1006.4 1005.8 0.0
15/04:30am 16.3 13.5 12.7 79 2.0 SW 19 24 10 13 1006.4 1005.8 0.0
15/04:00am 16.2 12.8 12.6 79 2.0 SSW 22 30 12 16 1006.2 1005.6 0.0
15/03:30am 16.4 12.3 12.6 78 2.1 SSW 26 35 14 19 1006.3 1005.7 0.0
15/03:00am 17.1 13.2 12.0 72 2.8 SSW 24 33 13 18 1006.4 1005.8 0.0
15/02:30am 17.1 12.4 12.0 72 2.8 SSW 28 35 15 19 1006.8 1006.2 0.0
15/02:00am 17.3 13.0 12.0 71 2.9 SSW 26 35 14 19 1007.4 1006.8 0.0
15/01:30am 17.4 13.5 12.1 71 2.9 SW 24 33 13 18 1007.7 1007.1 0.0
15/01:00am 17.5 13.2 12.0 70 3.0 SW 26 37 14 20 1008.1 1007.5 0.0
15/12:30am 17.7 13.0 11.9 69 3.2 SSW 28 37 15 20 1008.2 1007.6 0.0
15/12:00am 18.0 12.8 11.6 66 3.5 SW 30 39 16 21 1008.4 1007.8 0.0
 
Date/Time
CDT
Temp
°C
App
Temp
°C
Dew
Point
°C
Rel
Hum
%
Delta-T
°C
Wind Press
QNH
hPa
Press
MSL
hPa
Rain since
9am
mm
Dir  Spd
km/h
Gust
km/h
Spd
kts
Gust
kts
14/11:30pm 18.1 13.3 11.7 66 3.5 SW 28 39 15 21 1008.8 1008.2 0.0
14/11:00pm 18.2 13.0 11.5 65 3.7 SSW 30 41 16 22 1009.0 1008.4 0.0
14/10:32pm 18.6 13.7 11.4 63 4.0 SW 28 46 15 25 1009.0 1008.4 0.0
14/10:30pm 18.7 13.8 11.3 62 4.1 SW 28 41 15 22 1009.0 1008.4 0.0
14/10:00pm 18.9 14.0 11.2 61 4.2 SW 28 39 15 21 1008.8 1008.2 0.0
14/09:30pm 18.8 12.9 11.1 61 4.2 SW 33 46 18 25 1008.7 1008.1 0.0
14/09:00pm 18.8 12.8 10.9 60 4.3 SW 33 44 18 24 1008.5 1007.9 0.0
14/08:30pm 19.2 12.8 10.7 58 4.6 SW 35 48 19 26 1008.0 1007.4 0.0
14/08:13pm 19.3 13.4 10.6 57 4.7 SW 32 50 17 27 1007.9 1007.3 0.0
14/08:00pm 19.5 13.0 10.5 56 4.9 SW 35 46 19 25 1007.8 1007.2 0.0
14/07:30pm 19.8 13.3 10.2 54 5.2 SW 35 48 19 26 1007.7 1007.1 0.0
14/07:00pm 20.3 13.3 9.8 51 5.6 SW 37 57 20 31 1007.3 1006.7 0.0
14/06:31pm 20.8 13.7 9.4 48 6.1 SW 37 56 20 30 1007.2 1006.6 0.0
14/06:30pm 21.1 14.0 9.7 48 6.2 SW 37 54 20 29 1007.1 1006.5 0.0
14/06:00pm 21.6 14.1 9.5 46 6.5 SW 39 57 21 31 1007.0 1006.4 0.0
14/05:45pm 21.6 14.4 9.2 45 6.6 SSW 37 56 20 30 1006.8 1006.2 0.0
14/05:30pm 22.1 14.6 9.3 44 6.9 SW 39 54 21 29 1006.9 1006.3 0.0
14/05:00pm 22.3 14.3 9.1 43 7.1 SW 41 56 22 30 1007.0 1006.4 0.0
14/04:40pm 22.5 14.8 8.6 41 7.4 SSW 39 57 21 31 1006.9 1006.3 0.0
14/04:30pm 22.0 14.9 8.2 41 7.3 SSW 35 52 19 28 1007.2 1006.6 0.0
14/04:13pm 22.1 14.2 7.9 40 7.5 SW 39 57 21 31 1007.2 1006.6 0.0
14/04:00pm 22.8 15.0 8.1 39 7.8 SW 39 50 21 27 1007.3 1006.7 0.0
14/03:30pm 21.9 14.7 7.7 40 7.4 SW 35 54 19 29 1007.7 1007.1 0.0
14/03:29pm 21.8 14.2 7.6 40 7.4 SW 37 56 20 30 1007.7 1007.1 0.0
14/03:00pm 20.8 13.5 7.4 42 6.9 SSW 35 50 19 27 1008.3 1007.7 0.0
14/02:36pm 20.3 13.0 7.0 42 6.8 SW 35 54 19 29 1008.6 1008.0 0.0
14/02:30pm 20.7 12.5 6.6 40 7.2 SSW 39 54 21 29 1008.6 1008.0 0.0
14/02:00pm 20.9 13.7 6.1 38 7.5 SW 33 48 18 26 1008.8 1008.2 0.0
14/01:32pm 20.6 13.4 5.8 38 7.4 SW 33 52 18 28 1009.0 1008.4 0.0
14/01:30pm 20.4 13.1 5.6 38 7.4 SW 33 50 18 27 1009.2 1008.6 0.0
14/01:00pm 20.6 13.5 5.4 37 7.5 SW 32 50 17 27 1009.1 1008.5 0.0
14/12:30pm 20.5 13.1 4.9 36 7.7 SW 33 46 18 25 1009.7 1009.1 0.0
14/12:19pm 21.1 14.4 5.5 36 7.8 SW 30 48 16 26 1009.8 1009.2 0.0
14/12:00pm 19.9 12.5 5.2 38 7.2 SW 33 46 18 25 1010.0 1009.4 0.0
14/11:30am 19.7 12.6 5.4 39 7.1 SW 32 46 17 25 1010.4 1009.8 0.0
14/11:00am 18.0 11.5 4.6 41 6.4 SW 28 41 15 22 1010.8 1010.3 0.0
14/10:30am 18.2 11.6 4.4 40 6.6 SSW 28 41 15 22 1011.0 1010.5 0.0
14/10:00am 16.5 9.8 3.9 43 5.9 SW 28 41 15 22 1011.4 1010.9 0.0
14/09:30am 16.6 9.6 4.3 44 5.8 SSW 30 43 16 23 1011.8 1011.3 0.0
14/09:00am 14.9 7.4 3.4 46 5.2 SW 32 44 17 24 1012.1 1011.6 0.0
14/08:30am 14.2 7.4 3.1 47 5.0 SSW 28 46 15 25 1012.1 1011.6 0.0
14/08:00am 13.5 7.4 2.7 48 4.8 SW 24 32 13 17 1012.3 1011.8 0.0
14/07:30am 12.6 7.2 2.5 50 4.4 WSW 20 32 11 17 1012.4 1011.9 0.0
14/07:00am 11.5 6.3 2.5 54 3.9 WSW 19 26 10 14 1011.9 1011.4 0.0
14/06:30am 10.7 6.6 2.3 56 3.6 W 13 17 7 9 1011.7 1011.2 0.0
14/06:00am 11.1 5.9 2.4 55 3.8 SW 19 24 10 13 1011.6 1011.1 0.0
14/05:30am 11.2 5.9 2.0 53 3.9 SW 19 26 10 14 1011.3 1010.8 0.0
14/05:00am 11.5 5.9 1.5 50 4.2 SW 20 28 11 15 1011.7 1011.2 0.0
14/04:30am 11.8 6.2 1.4 49 4.4 SSW 20 28 11 15 1011.6 1011.1 0.0
14/04:00am 12.2 5.9 1.5 48 4.6 SSW 24 32 13 17 1012.0 1011.5 0.0
14/03:30am 12.4 5.7 1.7 48 4.6 SSW 26 35 14 19 1012.0 1011.5 0.0
14/03:00am 12.7 6.4 1.4 46 4.8 SSW 24 32 13 17 1012.4 1011.9 0.0
14/02:30am 13.1 6.6 0.5 42 5.3 SSW 24 35 13 19 1012.8 1012.3 0.0
14/02:00am 13.5 6.2 -0.2 39 5.7 SSW 28 41 15 22 1012.8 1012.3 0.0
14/01:30am 14.1 6.7 -0.4 37 6.0 SSW 28 41 15 22 1013.0 1012.5 0.0
14/01:00am 14.5 7.5 -0.8 35 6.4 SSW 26 43 14 23 1013.0 1012.5 0.0
14/12:37am 14.8 6.4 -1.3 33 6.6 SSW 33 52 18 28 1013.0 1012.5 0.0
14/12:30am 15.0 5.8 -1.5 32 6.8 S 37 52 20 28 1013.0 1012.5 0.0
14/12:00am 15.7 6.7 -0.1 34 6.7 S 37 50 20 27 1013.1 1012.6 0.0
 
Date/Time
CDT
Temp
°C
App
Temp
°C
Dew
Point
°C
Rel
Hum
%
Delta-T
°C
Wind Press
QNH
hPa
Press
MSL
hPa
Rain since
9am
mm
Dir  Spd
km/h
Gust
km/h
Spd
kts
Gust
kts
13/11:40pm 16.0 7.5 -1.5 30 7.3 SSW 33 52 18 28 1013.2 1012.7 0.0
13/11:30pm 16.2 7.1 -0.5 32 7.1 SSW 37 54 20 29 1013.1 1012.6 0.0
13/11:00pm 16.6 6.7 -0.6 31 7.3 SSW 41 59 22 32 1012.8 1012.3 0.0
13/10:30pm 17.1 6.8 0.3 32 7.3 SSW 44 63 24 34 1012.7 1012.2 0.0
13/10:00pm 17.7 8.9 -1.0 28 8.0 SSW 35 54 19 29 1012.3 1011.8 0.0
13/09:30pm 18.3 8.8 -1.0 27 8.3 SSW 39 57 21 31 1012.0 1011.5 0.0
13/09:05pm 18.9 8.5 -1.5 25 8.7 SSW 43 61 23 33 1011.8 1011.3 0.0
13/09:00pm 19.0 8.5 -2.6 23 9.0 SSW 43 57 23 31 1011.7 1011.2 0.0
13/08:40pm 19.4 9.5 -3.5 21 9.4 SSW 39 57 21 31 1011.5 1011.0 0.0
13/08:30pm 19.6 9.0 -3.3 21 9.5 SSW 43 56 23 30 1011.4 1010.9 0.0
13/08:03pm 20.3 10.1 -3.4 20 9.9 SSW 41 59 22 32 1011.1 1010.6 0.0
13/08:00pm 20.4 9.8 -3.3 20 9.9 SSW 43 59 23 32 1011.1 1010.6 0.0
13/07:30pm 21.2 10.9 -1.3 22 9.8 SSW 43 57 23 31 1010.8 1010.3 0.0
13/07:00pm 22.0 12.4 -1.3 21 10.3 SSW 39 50 21 27 1010.6 1010.1 0.0
13/06:30pm 23.0 13.1 -1.1 20 10.8 SSW 41 61 22 33 1010.4 1009.8 0.0
13/06:00pm 23.3 13.0 -0.9 20 10.9 SSW 43 61 23 33 1010.1 1009.5 0.0
13/05:52pm 23.5 13.2 -0.7 20 10.9 SSW 43 61 23 33 1010.1 1009.5 0.0
13/05:30pm 23.7 14.1 -1.3 19 11.2 SSW 39 50 21 27 1009.8 1009.2 0.0
13/05:22pm 23.8 13.9 -1.2 19 11.2 SW 41 59 22 32 1010.0 1009.4 0.0
13/05:16pm 24.1 13.8 -0.9 19 11.3 SSW 43 61 23 33 1009.9 1009.3 0.0
13/05:10pm 24.3 13.9 -1.5 18 11.5 SSW 43 61 23 33 1010.0 1009.4 0.0
13/05:08pm 23.6 13.6 -1.3 19 11.1 SSW 41 61 22 33 1009.7 1009.1 0.0
13/05:00pm 24.2 14.2 -1.6 18 11.5 SSW 41 56 22 30 1010.0 1009.4 0.0
13/04:39pm 24.7 14.6 -2.8 16 12.0 SSW 41 59 22 32 1010.2 1009.6 0.0
13/04:30pm 23.7 13.0 -2.8 17 11.5 SSW 44 59 24 32 1010.2 1009.6 0.0
13/04:00pm 23.9 13.7 -0.4 20 11.1 SW 43 65 23 35 1010.4 1009.8 0.0
13/03:30pm 24.5 14.5 -1.3 18 11.6 SSW 41 59 22 32 1010.2 1009.6 0.0
13/03:22pm 24.7 15.7 0.3 20 11.3 SSW 37 57 20 31 1010.4 1009.8 0.0
13/03:08pm 23.7 13.0 0.1 21 10.8 SSW 46 65 25 35 1010.7 1010.2 0.0
13/03:01pm 24.6 14.9 0.2 20 11.3 SSW 41 59 22 32 1010.6 1010.1 0.0
13/03:00pm 24.6 14.9 0.2 20 11.3 SSW 41 54 22 29 1010.5 1009.9 0.0
13/02:30pm 23.6 13.9 0.7 22 10.6 SSW 41 59 22 32 1010.7 1010.2 0.0
13/02:04pm 22.7 12.6 0.5 23 10.2 SSW 43 61 23 33 1011.0 1010.5 0.0
13/02:00pm 22.7 12.1 1.1 24 10.0 SSW 46 61 25 33 1011.2 1010.7 0.0
13/01:33pm 23.2 13.4 2.1 25 10.0 SSW 43 61 23 33 1011.3 1010.8 0.0
13/01:30pm 23.2 13.2 2.1 25 10.0 SSW 44 61 24 33 1011.3 1010.8 0.0
13/01:16pm 22.9 13.5 2.4 26 9.8 SSW 41 61 22 33 1011.4 1010.9 0.0
13/01:00pm 22.0 12.2 3.2 29 9.0 SSW 44 57 24 31 1011.3 1010.8 0.0
13/12:36pm 22.5 13.6 3.1 28 9.3 SW 39 57 21 31 1011.5 1011.0 0.0
13/12:30pm 22.5 12.8 3.1 28 9.3 SSW 43 57 23 31 1011.5 1011.0 0.0
13/12:11pm 21.5 12.0 3.7 31 8.6 SSW 43 61 23 33 1011.8 1011.3 0.0
13/12:00pm 21.2 12.4 3.4 31 8.5 SSW 39 56 21 30 1011.9 1011.4 0.0
13/11:30am 20.0 11.6 5.6 39 7.1 SW 39 56 21 30 1011.9 1011.4 0.0
13/11:00am 21.3 12.3 4.8 34 8.1 SSW 41 54 22 29 1011.9 1011.4 0.0
13/10:30am 20.6 11.4 5.4 37 7.5 SSW 43 54 23 29 1011.7 1011.2 0.0
13/10:11am 20.7 13.0 5.5 37 7.6 SW 35 54 19 29 1011.7 1011.2 0.0
13/10:00am 20.5 11.8 6.1 39 7.2 SW 41 54 22 29 1011.7 1011.2 0.0
13/09:30am 19.7 11.5 6.4 42 6.7 SSW 39 57 21 31 1011.8 1011.3 0.0
13/09:09am 19.2 11.4 6.7 44 6.3 SW 37 56 20 30 1011.8 1011.3 0.0
13/09:00am 18.8 10.2 6.6 45 6.1 SSW 41 54 22 29 1011.8 1011.3 0.0
13/08:30am 18.5 9.9 4.7 40 6.7 SSW 39 57 21 31 1011.7 1011.2 0.0
13/08:03am 17.9 9.1 5.5 44 6.0 SSW 41 59 22 32 1011.4 1010.9 0.0
13/08:00am 17.8 8.7 6.0 46 5.8 SSW 43 59 23 32 1011.4 1010.9 0.0
13/07:54am 17.7 9.1 6.3 47 5.6 SSW 41 59 22 32 1011.4 1010.9 0.0
13/07:30am 17.4 10.0 8.3 55 4.7 SW 37 48 20 26 1011.5 1011.0 0.0
13/07:11am 17.4 9.5 7.7 53 4.9 SW 39 61 21 33 1011.2 1010.7 0.0
13/07:00am 17.5 10.7 9.2 58 4.3 SW 35 50 19 27 1011.1 1010.6 0.0
13/06:31am 17.6 11.0 10.0 61 4.0 SSW 35 54 19 29 1010.6 1010.1 0.0
13/06:30am 17.6 11.0 10.0 61 4.0 SSW 35 52 19 28 1010.6 1010.1 0.0
13/06:25am 17.6 11.7 10.5 63 3.8 SW 32 50 17 27 1010.5 1009.9 0.0
13/06:00am 17.6 11.0 11.4 67 3.4 SW 37 52 20 28 1010.1 1009.5 0.0
13/05:57am 17.7 11.9 11.5 67 3.4 SW 33 52 18 28 1010.1 1009.5 0.0
13/05:30am 18.2 12.0 11.5 65 3.7 SW 35 50 19 27 1009.7 1009.1 0.0
13/05:03am 18.5 12.0 11.6 64 3.8 SW 37 59 20 32 1009.2 1008.6 0.0
13/05:00am 18.7 12.5 11.3 62 4.1 SW 35 50 19 27 1009.2 1008.6 0.0
13/04:30am 18.1 11.7 10.7 62 4.0 SSW 35 48 19 26 1009.0 1008.4 0.0
13/04:04am 18.1 11.6 10.5 61 4.1 SSW 35 56 19 30 1008.6 1008.0 0.0
13/04:00am 18.0 11.5 10.4 61 4.1 SSW 35 52 19 28 1008.5 1007.9 0.0
13/03:30am 18.6 10.7 10.7 60 4.3 SW 43 63 23 34 1008.3 1007.7 0.0
13/03:00am 19.6 13.5 11.6 60 4.4 SW 35 54 19 29 1008.2 1007.6 0.0
13/02:59am 19.6 13.5 11.6 60 4.4 SW 35 54 19 29 1008.1 1007.5 0.0
13/02:30am 20.3 15.4 13.7 66 3.8 SSW 32 44 17 24 1008.3 1007.7 0.0
13/02:00am 20.8 15.0 14.0 65 4.0 SW 37 56 20 30 1008.3 1007.7 0.0
13/01:30am 20.8 14.6 13.7 64 4.1 SW 39 63 21 34 1008.1 1007.5 0.0
13/01:00am 21.0 13.4 13.7 63 4.2 SW 46 67 25 36 1008.0 1007.4 0.0
13/12:44am 21.3 14.3 13.7 62 4.4 SW 43 61 23 33 1008.2 1007.6 0.0
13/12:30am 21.6 14.4 13.8 61 4.5 SW 44 59 24 32 1008.3 1007.7 0.0
13/12:01am 23.8 16.0 11.2 45 7.1 SW 43 63 23 34 1007.4 1006.8 0.0
13/12:00am 23.9 16.0 10.9 44 7.3 SW 43 57 23 31 1007.5 1006.9 0.0
 
Date/Time
CDT
Temp
°C
App
Temp
°C
Dew
Point
°C
Rel
Hum
%
Delta-T
°C
Wind Press
QNH
hPa
Press
MSL
hPa
Rain since
9am
mm
Dir  Spd
km/h
Gust
km/h
Spd
kts
Gust
kts
12/11:33pm 24.9 17.7 10.4 40 8.1 SW 39 57 21 31 1006.8 1006.2 0.0
12/11:30pm 25.1 18.3 10.6 40 8.1 SW 37 52 20 28 1006.8 1006.2 0.0
12/11:00pm 26.2 19.1 10.8 38 8.7 SW 39 50 21 27 1006.3 1005.7 0.0
12/10:42pm 27.1 21.5 12.0 39 8.7 SW 33 52 18 28 1006.0 1005.4 0.0
12/10:30pm 27.6 20.9 12.4 39 8.9 SW 39 54 21 29 1005.6 1005.0 0.0
12/10:00pm 28.8 21.3 12.2 35 9.7 SW 43 54 23 29 1004.7 1004.2 0.0
12/09:33pm 30.4 25.0 12.3 33 10.7 SW 32 52 17 28 1004.2 1003.7 0.0
12/09:30pm 30.6 25.3 12.5 33 10.8 SW 32 46 17 25 1004.2 1003.7 0.0
12/09:26pm 30.7 24.9 12.6 33 10.7 SW 35 54 19 29 1004.1 1003.6 0.0
12/09:00pm 31.6 24.9 12.4 31 11.4 SW 39 54 21 29 1003.5 1003.0 0.0
12/08:36pm 32.8 27.3 12.4 29 12.2 SW 33 57 18 31 1003.1 1002.6 0.0
12/08:30pm 33.3 28.3 12.3 28 12.6 SW 30 39 16 21 1003.0 1002.5 0.0
12/08:00pm 34.1 29.2 12.4 26 13.0 WSW 30 43 16 23 1002.7 1002.2 0.0
12/07:30pm 34.8 29.5 12.5 26 13.5 WSW 32 43 17 23 1002.4 1001.9 0.0
12/07:01pm 35.7 30.6 12.0 24 14.2 WSW 30 48 16 26 1002.3 1001.8 0.0
12/07:00pm 35.6 30.1 11.9 24 14.2 WSW 32 48 17 26 1002.3 1001.8 0.0
12/06:47pm 35.7 30.1 12.0 24 14.2 WSW 33 52 18 28 1002.2 1001.7 0.0
12/06:30pm 35.7 30.1 12.0 24 14.3 WSW 33 44 18 24 1002.1 1001.6 0.0
12/06:00pm 35.7 30.1 12.0 24 14.3 WSW 33 48 18 26 1002.2 1001.7 0.0
12/05:30pm 35.4 29.7 11.7 23 14.2 WSW 33 46 18 25 1002.2 1001.7 0.0
12/05:00pm 35.9 30.5 12.2 24 14.3 SW 32 54 17 29 1002.5 1002.0 0.0
12/04:50pm 35.6 30.5 11.9 24 14.2 WSW 30 48 16 26 1002.6 1002.1 0.0
12/04:30pm 35.5 29.8 11.8 24 14.2 WSW 33 44 18 24 1002.7 1002.2 0.0
12/04:16pm 35.6 29.9 11.9 24 14.2 WSW 33 52 18 28 1002.8 1002.3 0.0
12/04:00pm 34.4 29.2 12.7 27 13.1 WSW 32 41 17 22 1003.2 1002.7 0.0
12/03:33pm 35.7 29.7 12.0 24 14.2 WSW 35 57 19 31 1003.5 1003.0 0.0
12/03:30pm 36.0 30.1 12.3 24 14.3 WSW 35 56 19 30 1003.5 1003.0 0.0
12/03:24pm 36.1 29.6 13.0 25 14.1 WSW 39 67 21 36 1003.4 1002.9 0.0
12/03:18pm 36.4 30.2 12.6 24 14.4 WSW 37 54 20 29 1003.1 1002.6 0.0
12/03:00pm 37.3 30.3 11.3 21 15.6 W 39 63 21 34 1003.1 1002.6 0.0
12/02:42pm 38.4 32.4 10.7 19 16.5 W 33 61 18 33 1003.0 1002.5 0.0
12/02:34pm 38.7 33.2 11.7 20 16.3 WNW 32 50 17 27 1003.1 1002.6 0.0
12/02:30pm 37.1 30.8 11.1 21 15.5 WNW 35 50 19 27 1003.2 1002.7 0.0
12/02:00pm 37.2 30.9 11.2 21 15.5 WNW 35 54 19 29 1003.8 1003.3 0.0
12/01:43pm 37.9 32.6 11.1 20 16.0 WNW 30 48 16 26 1004.0 1003.5 0.0
12/01:30pm 37.2 33.6 11.9 22 15.3 W 22 33 12 18 1004.2 1003.7 0.0
12/01:00pm 35.3 32.2 11.7 24 14.1 WNW 19 28 10 15 1004.5 1004.0 0.0
12/12:30pm 32.4 30.0 12.6 30 11.9 NNW 17 24 9 13 1005.0 1004.5 0.0
12/12:00pm 31.6 28.6 12.4 31 11.4 NNW 20 35 11 19 1005.9 1005.3 0.0
12/11:30am 30.4 27.8 13.2 35 10.3 NNW 19 24 10 13 1006.6 1006.0 0.0
12/11:00am 30.0 27.3 12.9 35 10.2 NNW 19 24 10 13 1006.7 1006.1 0.0

Other Formats:

Comma delimited format used in spreadsheet applications
http://www.bom.gov.au/fwo/IDS60801/IDS60801.95658.axf

JavaScript Object Notation format (JSON) in row-major order
http://www.bom.gov.au/fwo/IDS60801/IDS60801.95658.json